Time;durP1;ratioP1;P1;durP2;ratioP2;P2;SDS_P1;SDS_P2;PMS_P1;PMS_P2;Temp;Humidity;BMP_temperature;BMP_pressure;BME280_temperature;BME280_humidity;BME280_pressure;Samples;Min_cycle;Max_cycle;Signal;HPM_P1;HPM_P2
2021/08/19 05:31:24;;;;;;;;;5.00;4.00;;;;;19.66;62.76;101534.41;5861965;23;45986;-80
2021/08/19 05:33:51;;;;;;;;;3.00;3.00;;;;;19.61;63.06;101526.69;4993983;28;45272;-81
2021/08/19 05:36:16;;;;;;;;;4.25;4.25;;;;;19.58;62.81;101531.34;4976193;28;45477;-81
2021/08/19 05:38:42;;;;;;;;;4.25;4.25;;;;;19.57;62.44;101535.81;4998387;28;45225;-81
2021/08/19 05:41:07;;;;;;;;;5.50;5.50;;;;;19.58;63.05;101539.34;4995006;28;45356;-81
2021/08/19 05:43:33;;;;;;;;;3.50;3.50;;;;;19.61;63.35;101547.16;4995218;28;45209;-81
2021/08/19 05:45:59;;;;;;;;;4.50;4.50;;;;;19.66;62.91;101545.94;4992219;28;45158;-81
2021/08/19 05:48:24;;;;;;;;;4.75;4.75;;;;;19.63;63.00;101548.78;4983280;28;45233;-81
2021/08/19 05:50:50;;;;;;;;;4.00;4.00;;;;;19.68;62.71;101551.16;4997075;28;46152;-81
2021/08/19 05:53:15;;;;;;;;;3.25;3.25;;;;;19.73;62.34;101556.25;4989282;28;45297;-81
2021/08/19 05:55:41;;;;;;;;;3.00;3.00;;;;;19.77;62.40;101547.97;4979474;28;45431;-81
2021/08/19 05:58:06;;;;;;;;;7.75;6.00;;;;;19.75;62.60;101544.56;4980746;28;46297;-81
2021/08/19 06:00:32;;;;;;;;;7.75;6.00;;;;;19.77;62.29;101552.44;4998887;28;45456;-81
2021/08/19 06:02:57;;;;;;;;;5.00;5.00;;;;;19.71;62.86;101540.34;5000352;28;45423;-81
2021/08/19 06:05:23;;;;;;;;;4.75;4.75;;;;;19.76;62.59;101543.59;5002398;28;45723;-81
2021/08/19 06:07:48;;;;;;;;;5.00;5.00;;;;;19.76;62.27;101538.25;5001744;28;45506;-81
2021/08/19 06:10:13;;;;;;;;;4.00;4.00;;;;;19.78;62.23;101538.16;4996210;28;46365;-81
2021/08/19 06:12:39;;;;;;;;;6.00;5.00;;;;;19.79;62.48;101543.41;5002314;28;45321;-81
2021/08/19 06:15:06;;;;;;;;;6.75;5.00;;;;;19.71;62.50;101543.00;4991140;28;45256;-81
2021/08/19 06:17:33;;;;;;;;;5.25;5.25;;;;;19.71;62.37;101550.13;5000965;28;45466;-81
2021/08/19 06:19:59;;;;;;;;;5.25;5.25;;;;;19.67;62.43;101545.00;5001954;28;45368;-81
2021/08/19 06:22:24;;;;;;;;;4.00;4.00;;;;;19.61;62.49;101539.16;4984083;28;45190;-81
2021/08/19 06:24:49;;;;;;;;;7.25;5.50;;;;;19.65;62.52;101546.03;4994791;28;45482;-81
2021/08/19 06:27:15;;;;;;;;;5.00;5.00;;;;;19.65;62.55;101538.03;5001743;28;45582;-81
2021/08/19 06:29:40;;;;;;;;;4.25;4.00;;;;;19.68;62.99;101532.50;5001806;28;45341;-77
2021/08/19 06:32:06;;;;;;;;;8.50;5.25;;;;;19.68;62.34;101537.84;5001027;28;45204;-76
2021/08/19 06:34:32;;;;;;;;;5.50;4.25;;;;;19.68;62.68;101529.84;5001164;28;45478;-76
2021/08/19 06:36:57;;;;;;;;;6.50;5.25;;;;;19.70;62.44;101537.78;4999627;28;45367;-76
2021/08/19 06:39:22;;;;;;;;;5.50;5.50;;;;;19.72;62.46;101544.72;4997321;28;45403;-76
2021/08/19 06:41:48;;;;;;;;;6.00;5.00;;;;;19.76;62.39;101538.25;5001795;28;45317;-76
2021/08/19 06:44:13;;;;;;;;;6.00;5.25;;;;;19.73;62.17;101535.75;5001538;28;45384;-76
2021/08/19 06:46:39;;;;;;;;;6.00;5.50;;;;;19.73;61.90;101535.75;5001134;28;45471;-76
2021/08/19 06:49:04;;;;;;;;;4.75;4.75;;;;;19.77;62.33;101531.13;4991260;28;46191;-76
2021/08/19 06:51:32;;;;;;;;;7.25;7.00;;;;;19.76;62.35;101538.25;5001693;28;45392;-76
2021/08/19 06:53:58;;;;;;;;;5.00;4.25;;;;;19.76;62.51;101540.06;5010184;28;45474;-76
2021/08/19 06:56:23;;;;;;;;;2.00;2.00;;;;;19.79;62.16;101537.22;5000868;28;45428;-76
2021/08/19 06:58:49;;;;;;;;;5.75;5.75;;;;;19.83;62.02;101553.91;5001635;28;45234;-76
2021/08/19 07:01:15;;;;;;;;;4.50;4.50;;;;;19.76;62.02;101538.25;5000565;28;45265;-76
2021/08/19 07:03:40;;;;;;;;;7.75;5.00;;;;;19.73;61.80;101534.94;5002368;28;45404;-76
2021/08/19 07:06:12;;;;;;;;;5.25;5.25;;;;;19.76;62.21;101548.91;4997885;28;45447;-76
2021/08/19 07:08:38;;;;;;;;;5.25;5.25;;;;;19.72;61.79;101539.41;5000918;28;45217;-76
2021/08/19 07:11:03;;;;;;;;;5.75;5.75;;;;;19.77;61.70;101541.78;5001523;28;45337;-76
2021/08/19 07:13:29;;;;;;;;;4.50;4.25;;;;;19.78;61.81;101543.47;5001447;28;45221;-76
2021/08/19 07:15:54;;;;;;;;;8.50;6.50;;;;;19.85;61.38;101550.16;5000326;28;45281;-76
2021/08/19 07:18:20;;;;;;;;;6.75;6.25;;;;;19.84;61.79;101539.59;4983410;28;46108;-76
2021/08/19 07:20:45;;;;;;;;;4.25;4.00;;;;;19.84;62.07;101536.94;5001301;28;45226;-76
2021/08/19 07:23:11;;;;;;;;;6.00;6.00;;;;;19.91;62.00;101543.63;5001454;28;45354;-76
2021/08/19 07:25:36;;;;;;;;;5.00;4.50;;;;;19.90;61.62;101539.25;5000391;28;45443;-76
2021/08/19 07:28:02;;;;;;;;;5.75;4.75;;;;;19.88;62.00;101533.13;4996740;28;46201;-76
2021/08/19 07:30:27;;;;;;;;;5.00;5.00;;;;;19.89;61.42;101545.53;5000856;28;45338;-76
2021/08/19 07:32:53;;;;;;;;;6.00;4.50;;;;;19.90;61.49;101539.25;5000282;28;45432;-76
2021/08/19 07:35:18;;;;;;;;;8.00;7.00;;;;;19.88;61.22;101543.78;5000169;28;45953;-76
2021/08/19 07:37:52;;;;;;;;;7.50;5.00;;;;;19.88;61.46;101541.13;5000669;28;45395;-76
2021/08/19 07:40:20;;;;;;;;;6.00;4.75;;;;;19.83;62.28;101535.25;5000805;28;45289;-76
2021/08/19 07:42:45;;;;;;;;;5.25;5.25;;;;;19.86;61.85;101535.91;5000786;28;45430;-76
2021/08/19 07:45:13;;;;;;;;;6.00;6.00;;;;;19.90;61.80;101532.09;5000238;28;45487;-76
2021/08/19 07:47:39;;;;;;;;;5.75;5.75;;;;;19.96;61.41;101530.00;5000554;28;45431;-76
2021/08/19 07:50:05;;;;;;;;;7.25;5.25;;;;;20.02;61.03;101538.50;5001006;28;45388;-76
2021/08/19 07:52:31;;;;;;;;;6.00;6.00;;;;;19.95;61.31;101529.13;4990643;28;45436;-76
2021/08/19 07:54:56;;;;;;;;;9.25;6.75;;;;;19.91;61.22;101530.28;5000013;28;45490;-76
2021/08/19 07:57:21;;;;;;;;;6.25;4.00;;;;;19.96;61.39;101535.34;5000936;28;45327;-76
2021/08/19 07:59:47;;;;;;;;;6.00;4.75;;;;;20.05;61.66;101532.09;5000629;28;45380;-76
2021/08/19 08:02:12;;;;;;;;;7.00;4.50;;;;;20.10;61.51;101530.00;4999440;28;45361;-78
2021/08/19 08:04:37;;;;;;;;;4.50;4.00;;;;;20.21;61.29;101542.75;5000904;28;45341;-79
2021/08/19 08:07:03;;;;;;;;;5.25;4.25;;;;;20.21;60.84;101536.53;5000550;28;46313;-79
2021/08/19 08:09:28;;;;;;;;;8.50;6.50;;;;;20.23;60.42;101538.16;4999406;28;45447;-79
2021/08/19 08:11:56;;;;;;;;;9.00;6.75;;;;;20.23;60.81;101531.97;5000197;28;45254;-79
2021/08/19 08:14:22;;;;;;;;;8.25;8.00;;;;;20.29;60.52;101544.06;5000629;28;45456;-79
2021/08/19 08:16:47;;;;;;;;;12.25;8.50;;;;;20.28;60.46;101542.34;4999803;28;46565;-79
2021/08/19 08:19:15;;;;;;;;;6.50;6.50;;;;;20.29;60.33;101541.41;5000507;28;45258;-79
2021/08/19 08:21:41;;;;;;;;;7.50;5.75;;;;;20.32;60.55;101542.06;4999627;28;45419;-79
2021/08/19 08:24:07;;;;;;;;;4.25;3.50;;;;;20.29;60.38;101531.59;5000254;28;46951;-79
2021/08/19 08:26:33;;;;;;;;;7.00;6.00;;;;;20.35;60.64;101543.69;4998896;28;45367;-79
2021/08/19 08:28:59;;;;;;;;;6.00;6.00;;;;;20.41;60.21;101545.97;4999498;28;45375;-79
2021/08/19 08:31:25;;;;;;;;;7.50;7.25;;;;;20.37;60.02;101538.28;4999729;28;45383;-79
2021/08/19 08:33:51;;;;;;;;;8.75;7.00;;;;;20.34;59.93;101544.66;4999293;28;45428;-78
2021/08/19 08:36:17;;;;;;;;;9.00;6.75;;;;;20.34;60.55;101547.31;4993326;28;46303;-79
2021/08/19 08:38:44;;;;;;;;;7.00;6.50;;;;;20.40;60.32;101554.06;5000173;28;45344;-79
2021/08/19 08:41:11;;;;;;;;;6.00;6.00;;;;;20.44;60.38;101547.59;4997386;28;45452;-79
2021/08/19 08:43:37;;;;;;;;;4.75;4.75;;;;;20.48;60.04;101545.59;4998541;28;45467;-79
2021/08/19 08:46:10;;;;;;;;;6.75;5.50;;;;;20.54;59.98;101554.09;4998275;28;45613;-79
2021/08/19 08:48:35;;;;;;;;;5.75;5.75;;;;;20.55;60.02;101549.59;4998243;28;45274;-79
2021/08/19 08:51:01;;;;;;;;;5.00;5.00;;;;;20.61;59.95;101554.56;4999277;28;45462;-79
2021/08/19 08:53:27;;;;;;;;;7.25;6.25;;;;;20.59;59.61;101553.81;4999803;28;45466;-79
2021/08/19 08:55:52;;;;;;;;;4.50;4.50;;;;;20.57;59.89;101556.53;4999416;28;45493;-79
2021/08/19 08:58:18;;;;;;;;;5.75;5.25;;;;;20.57;59.04;101555.69;4999729;28;45250;-79
2021/08/19 09:00:45;;;;;;;;;6.75;6.00;;;;;20.53;59.04;101559.50;4989624;28;45408;-79
2021/08/19 09:03:12;;;;;;;;;6.25;5.00;;;;;20.46;59.59;101562.56;4999682;28;45589;-79
2021/08/19 09:05:43;;;;;;;;;6.75;5.75;;;;;20.51;59.69;101566.75;4999359;28;46867;-79
2021/08/19 09:08:20;;;;;;;;;8.75;7.00;;;;;20.54;59.74;101564.78;4999304;28;45309;-79
2021/08/19 09:10:47;;;;;;;;;7.75;7.00;;;;;20.61;59.69;101565.25;4999361;28;45420;-79
2021/08/19 09:13:23;;;;;;;;;7.00;6.00;;;;;20.61;59.61;101567.03;4998962;28;45467;-79
2021/08/19 09:15:50;;;;;;;;;8.25;7.50;;;;;20.56;59.64;101576.22;4998338;28;46344;-79
2021/08/19 09:18:36;;;;;;;;;6.00;6.00;;;;;20.54;59.48;101578.13;4999224;28;45285;-79
2021/08/19 09:21:16;;;;;;;;;7.00;4.75;;;;;20.51;59.25;101577.44;4999585;28;45349;-79
2021/08/19 09:23:42;;;;;;;;;6.00;4.75;;;;;20.51;59.72;101575.63;4998903;28;45427;-79
2021/08/19 09:26:07;;;;;;;;;5.25;5.25;;;;;20.46;59.29;101572.41;4998804;28;46432;-79
2021/08/19 09:28:33;;;;;;;;;5.50;5.50;;;;;20.44;59.34;101574.31;4996827;28;45146;-79
2021/08/19 09:31:04;;;;;;;;;8.75;5.75;;;;;20.49;59.42;101568.69;4999368;28;45222;-79
2021/08/19 09:33:33;;;;;;;;;9.50;7.50;;;;;20.55;59.00;101576.28;4994461;28;45614;-78
2021/08/19 09:36:01;;;;;;;;;5.75;5.25;;;;;20.51;58.60;101574.78;4992331;28;46483;-78
2021/08/19 09:38:44;;;;;;;;;6.75;6.75;;;;;20.46;58.97;101575.94;4992472;28;45522;-79
2021/08/19 09:41:17;;;;;;;;;5.75;5.75;;;;;20.42;59.02;101573.56;4998778;28;45506;-79
2021/08/19 09:43:50;;;;;;;;;8.00;7.00;;;;;20.38;59.80;101566.66;4998919;28;45471;-79
2021/08/19 09:46:34;;;;;;;;;6.25;6.25;;;;;20.43;59.32;101567.25;4997685;28;46287;-79
2021/08/19 09:49:01;;;;;;;;;6.00;6.00;;;;;20.46;59.43;101567.06;4998315;28;45546;-79
2021/08/19 09:51:28;;;;;;;;;4.75;3.75;;;;;20.53;59.45;101575.53;5001073;28;46149;-79
2021/08/19 09:53:55;;;;;;;;;7.75;5.00;;;;;20.59;58.78;101572.50;5002015;28;45320;-79
2021/08/19 09:56:30;;;;;;;;;6.25;6.25;;;;;20.62;59.11;101571.44;5001906;28;46616;-79
2021/08/19 09:59:19;;;;;;;;;5.00;5.00;;;;;20.67;58.86;101572.00;5000597;28;45277;-79
2021/08/19 10:02:07;;;;;;;;;5.50;5.00;;;;;20.65;58.70;101569.44;5002090;28;45312;-79
2021/08/19 10:04:33;;;;;;;;;7.75;6.75;;;;;20.62;58.94;101564.28;4999920;28;45447;-79
2021/08/19 10:06:59;;;;;;;;;4.50;4.50;;;;;20.66;58.88;101559.59;5001655;28;45265;-79
2021/08/19 10:09:26;;;;;;;;;5.00;4.00;;;;;20.67;58.87;101561.31;5001662;28;45479;-79
2021/08/19 10:11:54;;;;;;;;;6.50;6.50;;;;;20.69;58.44;101557.59;5001805;28;45636;-79
2021/08/19 10:14:25;;;;;;;;;5.25;5.25;;;;;20.71;58.81;101562.84;5001755;28;45457;-79
2021/08/19 10:16:51;;;;;;;;;5.00;5.00;;;;;20.69;58.06;101562.09;5001620;28;45417;-79
2021/08/19 10:19:23;;;;;;;;;5.50;5.00;;;;;20.71;58.11;101564.66;5000062;28;46911;-79
2021/08/19 10:21:55;;;;;;;;;8.00;6.50;;;;;20.61;58.36;101559.91;4996830;28;45631;-79
2021/08/19 10:24:29;;;;;;;;;5.00;5.00;;;;;20.61;58.63;101554.56;4991315;28;45263;-79
2021/08/19 10:27:17;;;;;;;;;5.50;5.50;;;;;20.67;58.45;101570.19;5001129;28;45491;-79
2021/08/19 10:29:46;;;;;;;;;8.50;5.50;;;;;20.60;58.33;101560.84;4997607;28;45580;-79
2021/08/19 10:32:32;;;;;;;;;5.00;4.75;;;;;20.55;58.63;101558.47;5000709;28;45529;-79
2021/08/19 10:35:07;;;;;;;;;6.50;4.25;;;;;20.62;58.73;101558.94;4998347;28;45598;-78
2021/08/19 10:37:48;;;;;;;;;5.50;4.00;;;;;20.68;58.55;101560.38;4998872;28;46293;-78
2021/08/19 10:40:19;;;;;;;;;4.25;4.25;;;;;20.73;58.69;101555.59;5000815;28;45454;-78
2021/08/19 10:42:49;;;;;;;;;5.00;4.00;;;;;20.72;58.35;101545.84;5001776;28;45369;-78
2021/08/19 10:45:26;;;;;;;;;5.00;4.00;;;;;20.79;58.05;101565.03;4969893;28;47572;-78
2021/08/19 10:47:52;;;;;;;;;4.00;4.00;;;;;20.69;57.68;101551.41;4998160;28;45518;-78
2021/08/19 10:50:57;;;;;;;;;4.50;4.25;;;;;20.67;58.34;101555.97;5000683;28;45847;-78
2021/08/19 10:53:28;;;;;;;;;4.00;4.00;;;;;20.67;58.47;101559.50;4978263;28;45330;-78
2021/08/19 10:55:56;;;;;;;;;3.00;3.00;;;;;20.61;58.77;101559.03;4998766;28;45361;-78
2021/08/19 10:58:27;;;;;;;;;4.00;4.00;;;;;20.62;58.36;101558.94;5003017;28;46307;-78
2021/08/19 11:00:55;;;;;;;;;6.50;4.50;;;;;20.54;58.44;101555.91;4990746;28;45234;-78
2021/08/19 11:03:35;;;;;;;;;6.00;5.00;;;;;20.56;58.33;101570.00;4996780;28;45325;-78
2021/08/19 11:06:03;;;;;;;;;5.25;4.75;;;;;20.54;58.40;101562.09;5000281;28;45526;-78
2021/08/19 11:08:37;;;;;;;;;6.00;3.25;;;;;20.57;58.45;101555.69;5000641;28;46255;-79
2021/08/19 11:11:03;;;;;;;;;7.00;5.50;;;;;20.65;58.64;101555.22;5000903;28;45525;-79
2021/08/19 11:13:29;;;;;;;;;8.00;6.50;;;;;20.72;58.44;101555.69;5001118;28;45244;-79
2021/08/19 11:15:54;;;;;;;;;4.50;4.00;;;;;20.76;57.95;101551.88;4993710;28;45471;-79
2021/08/19 11:18:27;;;;;;;;;4.25;4.25;;;;;20.74;58.26;101551.94;4997615;28;45520;-79
2021/08/19 11:20:52;;;;;;;;;5.00;5.00;;;;;20.80;58.66;101561.38;5000523;28;45295;-79
2021/08/19 11:23:18;;;;;;;;;5.25;5.00;;;;;20.75;58.32;101559.00;5001106;28;45352;-79
2021/08/19 11:25:46;;;;;;;;;4.50;4.00;;;;;20.79;58.31;101555.19;5001277;28;45622;-79
2021/08/19 11:28:16;;;;;;;;;5.00;5.00;;;;;20.80;58.13;101550.72;5000895;28;45617;-79
2021/08/19 11:30:50;;;;;;;;;6.00;5.00;;;;;20.85;58.03;101556.63;4996513;28;45512;-79
2021/08/19 11:33:24;;;;;;;;;4.00;3.25;;;;;20.90;57.60;101559.00;4984052;28;45506;-79
2021/08/19 11:35:53;;;;;;;;;5.00;5.00;;;;;20.93;57.69;101556.13;5001078;28;45507;-79
2021/08/19 11:38:21;;;;;;;;;3.75;2.25;;;;;20.91;57.35;101556.22;5000801;28;46508;-79
2021/08/19 11:40:49;;;;;;;;;5.50;3.75;;;;;20.96;57.46;101555.94;5000409;28;45577;-79
2021/08/19 11:43:32;;;;;;;;;2.75;2.75;;;;;20.98;57.09;101562.03;5001035;28;45426;-79
2021/08/19 11:46:09;;;;;;;;;5.00;5.00;;;;;20.99;57.51;101562.91;5000760;28;45423;-79
2021/08/19 11:48:36;;;;;;;;;3.50;3.50;;;;;20.90;57.31;101551.84;4982187;28;46939;-79
2021/08/19 11:51:04;;;;;;;;;4.00;4.00;;;;;20.89;56.96;101555.44;4994542;28;45568;-79
2021/08/19 11:53:29;;;;;;;;;6.00;6.00;;;;;20.89;57.33;101558.13;4994886;28;45276;-79
2021/08/19 11:55:56;;;;;;;;;6.00;5.00;;;;;20.90;56.81;101550.97;4983139;28;46073;-79
2021/08/19 11:58:24;;;;;;;;;4.00;3.75;;;;;20.94;57.26;101551.66;5000335;28;45439;-79
2021/08/19 12:01:09;;;;;;;;;5.00;3.75;;;;;21.01;56.63;101553.00;4998662;28;45357;-79
2021/08/19 12:03:40;;;;;;;;;5.00;3.75;;;;;20.98;56.29;101551.34;4998657;28;45319;-79
2021/08/19 12:06:08;;;;;;;;;5.50;4.75;;;;;21.01;57.08;101542.31;4999375;28;45447;-79
2021/08/19 12:08:35;;;;;;;;;3.25;3.25;;;;;20.95;56.63;101548.88;5000052;28;46630;-79
2021/08/19 12:11:03;;;;;;;;;4.50;3.00;;;;;20.96;56.78;101549.72;5000417;28;45266;-79
2021/08/19 12:13:30;;;;;;;;;5.25;3.50;;;;;20.98;56.60;101545.13;5000633;28;45254;-79
2021/08/19 12:15:56;;;;;;;;;4.00;4.00;;;;;20.97;56.77;101552.28;4998637;28;45533;-79
2021/08/19 12:18:23;;;;;;;;;4.50;3.00;;;;;20.95;57.34;101542.66;4997380;28;46683;-79
2021/08/19 12:21:08;;;;;;;;;4.75;3.00;;;;;20.99;56.30;101545.03;4987984;28;45835;-79
2021/08/19 12:23:33;;;;;;;;;3.00;2.75;;;;;21.07;56.80;101543.69;4995756;28;45534;-79
2021/08/19 12:26:09;;;;;;;;;4.00;4.00;;;;;21.10;56.38;101543.50;4997290;28;45429;-79
2021/08/19 12:28:35;;;;;;;;;5.00;3.00;;;;;21.11;56.18;101543.41;5000178;28;45510;-79
2021/08/19 12:31:03;;;;;;;;;3.00;3.00;;;;;21.12;55.77;101547.81;4995804;28;45345;-79
2021/08/19 12:33:46;;;;;;;;;2.75;2.00;;;;;21.18;56.00;101551.03;4999953;28;45273;-79
2021/08/19 12:36:17;;;;;;;;;2.00;2.00;;;;;21.18;56.14;101545.69;4995911;28;45554;-79
2021/08/19 12:38:44;;;;;;;;;5.00;5.00;;;;;21.22;55.99;101557.88;5000007;28;45531;-79
2021/08/19 12:41:22;;;;;;;;;5.75;4.50;;;;;21.25;56.15;101558.56;4989748;28;45529;-79
2021/08/19 12:44:05;;;;;;;;;2.75;2.75;;;;;21.23;56.13;101551.59;4997775;28;45483;-79
2021/08/19 12:46:41;;;;;;;;;5.00;3.75;;;;;21.24;56.65;101551.47;5004309;28;45514;-79
2021/08/19 12:49:33;;;;;;;;;4.00;3.50;;;;;21.26;56.30;101562.06;4988497;28;46413;-79
2021/08/19 12:52:19;;;;;;;;;3.00;3.00;;;;;21.20;55.59;101557.13;4988859;28;45380;-78
2021/08/19 12:54:57;;;;;;;;;3.00;2.50;;;;;21.18;55.93;101553.72;4999593;28;45337;-78
2021/08/19 12:57:44;;;;;;;;;3.00;3.00;;;;;21.25;55.79;101557.69;4987292;28;45579;-78
2021/08/19 13:00:19;;;;;;;;;3.00;3.00;;;;;21.25;56.20;101549.66;4997968;28;45639;-78
2021/08/19 13:02:45;;;;;;;;;4.25;3.50;;;;;21.27;55.70;101554.91;4992189;28;45504;-78
2021/08/19 13:05:13;;;;;;;;;2.00;2.00;;;;;21.22;55.56;101555.22;4999710;28;45250;-78
2021/08/19 13:07:38;;;;;;;;;4.25;3.00;;;;;21.24;56.49;101537.25;4999651;28;45585;-79
2021/08/19 13:10:06;;;;;;;;;4.00;3.00;;;;;21.33;55.80;101546.50;4998306;28;46347;-79
2021/08/19 13:12:32;;;;;;;;;3.75;3.00;;;;;21.35;55.58;101547.25;5003694;28;45213;-79
2021/08/19 13:14:58;;;;;;;;;3.00;3.00;;;;;21.34;55.86;101546.38;4994930;28;45388;-79
2021/08/19 13:17:24;;;;;;;;;4.00;3.25;;;;;21.28;55.21;101537.91;4986027;28;45965;-79
2021/08/19 13:19:50;;;;;;;;;6.00;3.00;;;;;21.23;55.55;101532.88;4993741;28;45357;-79
2021/08/19 13:22:16;;;;;;;;;2.50;2.50;;;;;21.24;55.97;101543.47;4993773;28;45186;-78
2021/08/19 13:24:43;;;;;;;;;4.00;2.75;;;;;21.20;55.88;101535.75;5004904;28;45380;-78
2021/08/19 13:27:10;;;;;;;;;4.00;3.75;;;;;21.18;55.83;101537.66;5002324;28;45289;-81
2021/08/19 13:29:37;;;;;;;;;2.75;2.75;;;;;21.13;55.46;101535.31;5005411;28;46389;-79
2021/08/19 13:32:03;;;;;;;;;2.25;2.25;;;;;21.11;55.75;101532.72;5005094;28;45230;-79
2021/08/19 13:34:28;;;;;;;;;4.50;3.00;;;;;21.08;55.27;101537.41;5005780;28;45393;-79
2021/08/19 13:36:54;;;;;;;;;3.00;3.00;;;;;21.04;55.60;101527.88;5005355;28;45371;-79
2021/08/19 13:39:19;;;;;;;;;4.50;3.25;;;;;21.00;55.96;101532.53;5004896;28;46324;-78
2021/08/19 13:41:45;;;;;;;;;2.75;2.75;;;;;21.02;55.59;101533.31;5004917;28;45404;-82
2021/08/19 13:44:10;;;;;;;;;3.25;3.25;;;;;21.04;56.05;101538.56;5002865;28;45483;-80
2021/08/19 13:46:35;;;;;;;;;4.75;2.25;;;;;21.06;56.13;101542.88;5005259;28;45257;-80
2021/08/19 13:49:01;;;;;;;;;4.00;3.00;;;;;21.16;56.04;101539.59;4999998;28;46789;-80
2021/08/19 13:51:26;;;;;;;;;3.25;3.00;;;;;21.16;55.29;101528.91;5002713;28;45486;-80
2021/08/19 13:53:52;;;;;;;;;2.50;2.50;;;;;21.19;55.89;101534.88;5017082;28;47031;-80
2021/08/19 13:56:17;;;;;;;;;2.75;2.75;;;;;21.20;55.37;101527.72;4998331;28;45426;-79
2021/08/19 13:58:43;;;;;;;;;3.00;3.00;;;;;21.21;55.82;101524.94;4995341;28;45499;-79
2021/08/19 14:01:08;;;;;;;;;3.00;3.00;;;;;21.29;55.42;101529.78;5005172;28;45415;-80
2021/08/19 14:03:34;;;;;;;;;3.00;3.00;;;;;21.25;55.69;101528.28;5006032;28;45415;-80
2021/08/19 14:05:59;;;;;;;;;4.00;4.00;;;;;21.23;55.87;101525.72;5005382;28;45340;-80
2021/08/19 14:08:24;;;;;;;;;3.75;2.75;;;;;21.21;55.85;101519.59;5005565;28;45412;-80
2021/08/19 14:10:50;;;;;;;;;4.50;3.50;;;;;21.23;56.06;101519.50;5005225;28;45408;-80
2021/08/19 14:13:15;;;;;;;;;4.00;4.00;;;;;21.26;56.30;101529.97;5004918;28;45325;-80
2021/08/19 14:15:40;;;;;;;;;3.00;3.00;;;;;21.18;55.44;101516.28;5005287;28;45360;-80
2021/08/19 14:18:07;;;;;;;;;5.25;4.00;;;;;21.13;55.37;101519.25;5005418;28;46050;-80
2021/08/19 14:20:33;;;;;;;;;5.75;3.00;;;;;21.10;55.26;101519.47;5005166;28;45504;-80
2021/08/19 14:22:58;;;;;;;;;4.25;3.00;;;;;21.08;55.46;101521.38;5003742;28;45234;-80
2021/08/19 14:25:24;;;;;;;;;3.25;3.25;;;;;21.05;55.77;101514.41;5002286;28;45345;-80
2021/08/19 14:27:49;;;;;;;;;4.50;3.25;;;;;21.07;55.23;101512.50;5002348;28;45313;-80
2021/08/19 14:30:15;;;;;;;;;3.75;3.75;;;;;21.10;55.62;101514.97;5002188;28;45201;-80
2021/08/19 14:32:40;;;;;;;;;3.00;3.00;;;;;21.16;55.63;101520.88;5001576;28;45437;-80
2021/08/19 14:35:06;;;;;;;;;5.50;5.50;;;;;21.16;55.67;101512.84;5001978;28;45214;-80
2021/08/19 14:37:33;;;;;;;;;3.25;3.25;;;;;21.18;56.07;101511.81;4972685;28;47238;-80
2021/08/19 14:39:59;;;;;;;;;4.25;3.25;;;;;21.17;55.23;101498.53;5001686;28;45476;-80
2021/08/19 14:42:24;;;;;;;;;9.00;4.00;;;;;21.18;55.30;101500.25;5001977;28;45438;-80
2021/08/19 14:44:49;;;;;;;;;3.75;3.00;;;;;21.16;55.67;101512.84;5001921;28;45387;-80
2021/08/19 14:47:15;;;;;;;;;5.25;3.75;;;;;21.11;55.01;101508.66;5001556;28;45368;-80
2021/08/19 14:49:40;;;;;;;;;3.00;3.00;;;;;21.10;55.51;101504.28;5001635;28;45447;-80
2021/08/19 14:52:07;;;;;;;;;4.75;4.00;;;;;21.10;56.25;101501.63;5001309;28;45323;-80
2021/08/19 14:54:32;;;;;;;;;4.00;3.00;;;;;21.19;55.72;101502.81;5001862;28;45222;-78
2021/08/19 14:56:57;;;;;;;;;3.00;2.75;;;;;21.20;55.15;101504.53;5001532;28;46289;-78
2021/08/19 14:59:23;;;;;;;;;5.00;4.00;;;;;21.15;55.48;101501.31;5001088;28;45518;-77
2021/08/19 15:01:48;;;;;;;;;9.75;8.75;;;;;21.12;55.00;101497.03;5001030;28;45277;-77
2021/08/19 15:04:14;;;;;;;;;7.75;7.00;;;;;21.07;55.16;101504.47;5001206;28;45226;-77
2021/08/19 15:06:39;;;;;;;;;4.00;4.00;;;;;21.05;55.72;101501.06;5001216;28;46182;-77
2021/08/19 15:09:05;;;;;;;;;3.50;3.50;;;;;21.05;54.95;101510.88;5001424;28;45225;-77
2021/08/19 15:11:37;;;;;;;;;4.00;3.00;;;;;21.04;55.66;101501.16;4983998;28;45496;-77
2021/08/19 15:14:03;;;;;;;;;4.00;4.00;;;;;21.03;55.31;101494.97;5001418;28;46072;-78
2021/08/19 15:16:28;;;;;;;;;3.75;3.75;;;;;21.08;55.03;101506.22;5001263;28;46498;-78
2021/08/19 15:18:53;;;;;;;;;4.75;3.00;;;;;21.02;55.52;101509.25;5001117;28;45222;-77
2021/08/19 15:21:19;;;;;;;;;3.25;3.25;;;;;21.03;55.42;101492.28;5000962;28;45154;-78
2021/08/19 15:23:44;;;;;;;;;2.25;2.25;;;;;21.03;55.17;101505.66;5001203;28;45456;-77
2021/08/19 15:26:10;;;;;;;;;3.00;3.00;;;;;21.02;55.62;101498.56;5001242;28;45223;-77
2021/08/19 15:28:37;;;;;;;;;6.00;4.00;;;;;21.02;55.24;101501.25;5000867;28;45229;-77
2021/08/19 15:31:03;;;;;;;;;4.00;4.00;;;;;21.01;55.39;101499.56;5000792;28;45443;-77
2021/08/19 15:33:28;;;;;;;;;3.75;3.00;;;;;20.96;55.66;101501.63;5000135;28;46989;-82
2021/08/19 15:36:00;;;;;;;;;2.25;2.25;;;;;20.94;55.43;101498.22;4993485;28;46476;-81
2021/08/19 15:38:26;;;;;;;;;3.50;2.50;;;;;20.95;55.94;101500.78;4995915;28;45462;-81
2021/08/19 15:40:51;;;;;;;;;3.00;3.00;;;;;20.96;55.44;101502.50;4999935;28;45281;-81
2021/08/19 15:43:16;;;;;;;;;2.75;2.75;;;;;21.00;55.50;101503.13;5000500;28;45513;-80
2021/08/19 15:45:42;;;;;;;;;3.00;3.00;;;;;20.97;55.70;101495.31;4996843;28;45455;-81
2021/08/19 15:48:07;;;;;;;;;3.00;3.00;;;;;21.00;55.24;101503.13;5000902;28;45382;-82
2021/08/19 15:50:34;;;;;;;;;5.50;3.00;;;;;20.99;55.68;101512.13;5000600;28;45327;-82
2021/08/19 15:53:00;;;;;;;;;1.75;1.25;;;;;20.99;55.15;101509.47;5001031;28;45479;-82
2021/08/19 15:55:26;;;;;;;;;2.50;2.00;;;;;21.02;55.51;101501.25;5002217;28;46348;-82
2021/08/19 15:57:51;;;;;;;;;4.00;4.00;;;;;21.04;54.93;101503.84;5001233;28;45445;-82
2021/08/19 16:00:17;;;;;;;;;3.00;3.00;;;;;21.00;54.90;101504.03;5000784;28;45277;-81
2021/08/19 16:02:42;;;;;;;;;3.00;2.25;;;;;20.96;55.17;101490.94;5000018;28;45282;-81
2021/08/19 16:05:08;;;;;;;;;2.50;2.50;;;;;20.98;55.86;101497.03;4983664;28;46880;-81
2021/08/19 16:07:35;;;;;;;;;0.00;0.00;;;;;20.97;54.90;101495.31;5000618;28;46057;-80
2021/08/19 16:10:03;;;;;;;;;3.75;2.25;;;;;20.95;55.33;101491.88;4992930;28;45235;-80
2021/08/19 16:12:28;;;;;;;;;2.25;2.00;;;;;20.92;55.27;101490.28;4996974;28;45456;-80
2021/08/19 16:14:54;;;;;;;;;3.50;3.50;;;;;20.90;54.97;101493.06;4995513;28;45490;-81
2021/08/19 16:17:19;;;;;;;;;2.00;2.00;;;;;20.92;54.97;101495.63;5008915;28;45427;-81
2021/08/19 16:19:45;;;;;;;;;3.00;3.00;;;;;20.90;55.58;101497.53;5000459;28;45336;-81
2021/08/19 16:22:10;;;;;;;;;3.00;2.00;;;;;20.94;55.03;101495.53;5000336;28;45289;-81
2021/08/19 16:24:37;;;;;;;;;3.00;1.25;;;;;20.95;54.96;101491.88;5000041;28;45445;-81
2021/08/19 16:27:04;;;;;;;;;3.00;3.00;;;;;20.98;55.11;101492.56;4999602;28;45254;-81
2021/08/19 16:29:29;;;;;;;;;2.00;2.00;;;;;20.95;55.00;101478.53;4987626;28;45440;-81
2021/08/19 16:31:55;;;;;;;;;1.50;1.50;;;;;20.90;55.05;101482.38;4982009;28;46166;-81
2021/08/19 16:34:20;;;;;;;;;3.50;2.00;;;;;20.92;55.47;101482.25;4999526;28;45455;-81
2021/08/19 16:36:45;;;;;;;;;2.00;2.00;;;;;20.86;54.90;101474.66;4997202;28;45269;-81
2021/08/19 16:39:11;;;;;;;;;4.50;1.75;;;;;20.87;55.21;101479.03;5000236;28;45230;-81
2021/08/19 16:41:36;;;;;;;;;3.25;2.00;;;;;20.88;55.45;101478.94;4999931;28;45447;-81
2021/08/19 16:44:02;;;;;;;;;3.75;2.00;;;;;20.88;56.25;101473.59;5000130;28;46583;-81
2021/08/19 16:46:27;;;;;;;;;3.25;2.25;;;;;20.89;55.22;101469.13;4998696;28;45347;-81
2021/08/19 16:48:53;;;;;;;;;2.50;2.00;;;;;20.85;55.60;101473.78;5000275;28;45348;-82
2021/08/19 16:51:19;;;;;;;;;2.50;1.50;;;;;20.89;55.27;101480.66;5000015;28;45311;-82
2021/08/19 16:53:44;;;;;;;;;2.00;2.00;;;;;20.86;55.46;101475.53;4997700;28;46217;-81
2021/08/19 16:56:09;;;;;;;;;2.75;2.00;;;;;20.88;55.24;101473.59;4980206;28;45330;-81
2021/08/19 16:58:35;;;;;;;;;3.50;3.00;;;;;20.78;55.52;101469.81;4999761;28;45340;-81